createdAt,value
2022-09-28T00:02:12.705Z,99687.31
2022-09-28T00:04:39.394Z,99677.44
2022-09-28T00:07:05.859Z,99687.31
2022-09-28T00:09:32.408Z,99662.91
2022-09-28T00:11:59.479Z,99677.00
2022-09-28T00:14:26.494Z,99680.56
2022-09-28T00:16:53.159Z,99675.44
2022-09-28T00:19:19.659Z,99673.06
2022-09-28T00:21:46.221Z,99688.81
2022-09-28T00:24:17.207Z,99669.44
2022-09-28T00:26:52.595Z,99668.25
2022-09-28T00:29:23.441Z,99682.41
2022-09-28T00:32:02.134Z,99679.31
2022-09-28T00:34:31.925Z,99685.22
2022-09-28T00:36:59.616Z,99676.88
2022-09-28T00:39:27.103Z,99689.06
2022-09-28T00:41:54.523Z,99684.00
2022-09-28T00:44:24.122Z,99693.03
2022-09-28T00:47:02.183Z,99690.19
2022-09-28T00:49:43.316Z,99689.41
2022-09-28T00:52:15.010Z,99701.59
2022-09-28T00:54:45.311Z,99690.16
2022-09-28T00:57:12.729Z,99687.41
2022-09-28T00:59:40.419Z,99687.78
2022-09-28T01:02:07.455Z,99681.47
2022-09-28T01:04:34.092Z,99693.34
2022-09-28T01:07:00.598Z,99691.75
2022-09-28T01:09:27.737Z,99687.84
2022-09-28T01:11:55.223Z,99693.34
2022-09-28T01:14:25.638Z,99694.13
2022-09-28T01:17:01.111Z,99697.69
2022-09-28T01:19:33.629Z,99696.53
2022-09-28T01:22:26.301Z,99696.13
2022-09-28T01:25:32.534Z,99687.09
2022-09-28T01:28:06.484Z,99691.44
2022-09-28T01:30:47.150Z,99688.69
2022-09-28T01:33:30.082Z,99691.84
2022-09-28T01:36:12.756Z,99682.81
2022-09-28T01:38:51.016Z,99683.59
2022-09-28T01:41:19.985Z,99679.66
2022-09-28T01:43:53.587Z,99672.94
2022-09-28T01:46:37.193Z,99674.94
2022-09-28T01:49:11.159Z,99667.44
2022-09-28T01:52:09.515Z,99682.44
2022-09-28T01:54:51.722Z,99673.38
2022-09-28T01:57:27.266Z,99648.59
2022-09-28T02:00:04.822Z,99663.56
2022-09-28T02:02:54.654Z,99656.88
2022-09-28T02:05:40.296Z,99654.91
2022-09-28T02:08:20.426Z,99641.13
2022-09-28T02:10:57.982Z,99649.03
2022-09-28T02:13:37.771Z,99647.09
2022-09-28T02:16:16.946Z,99640.44
2022-09-28T02:18:45.728Z,99649.91
2022-09-28T02:21:26.406Z,99632.19
2022-09-28T02:24:01.048Z,99655.00
2022-09-28T02:26:33.310Z,99651.84
2022-09-28T02:28:59.931Z,99652.22
2022-09-28T02:31:27.988Z,99655.75
2022-09-28T02:33:57.034Z,99645.88
2022-09-28T02:36:26.343Z,99666.31
2022-09-28T02:38:53.667Z,99658.84
2022-09-28T02:41:27.071Z,99650.56
2022-09-28T02:44:15.840Z,99668.28
2022-09-28T02:46:51.130Z,99661.19
2022-09-28T02:49:29.257Z,99653.69
2022-09-28T02:52:41.139Z,99671.03
2022-09-28T02:55:16.819Z,99679.69
2022-09-28T02:57:43.340Z,99667.91
2022-09-28T03:00:19.699Z,99656.09
2022-09-28T03:02:52.183Z,99671.44
2022-09-28T03:05:33.979Z,99669.47
2022-09-28T03:08:06.852Z,99669.06
2022-09-28T03:10:46.495Z,99645.84
2022-09-28T03:13:16.475Z,99657.28
2022-09-28T03:15:48.616Z,99662.38
2022-09-28T03:18:16.318Z,99647.03
2022-09-28T03:20:43.201Z,99669.84
2022-09-28T03:23:24.355Z,99661.16
2022-09-28T03:25:51.959Z,99676.56
2022-09-28T03:28:18.543Z,99678.13
2022-09-28T03:30:45.112Z,99668.31
2022-09-28T03:33:11.691Z,99665.22
2022-09-28T03:35:38.300Z,99674.66
2022-09-28T03:38:04.877Z,99666.78
2022-09-28T03:40:31.487Z,99657.75
2022-09-28T03:42:59.847Z,99638.47
2022-09-28T03:45:26.556Z,99656.56
2022-09-28T03:47:53.312Z,99645.94
2022-09-28T03:50:21.173Z,99654.63
2022-09-28T03:52:47.701Z,99658.94
2022-09-28T03:55:14.446Z,99636.09
2022-09-28T03:57:40.978Z,99644.75
2022-09-28T04:00:08.286Z,99649.47
2022-09-28T04:02:35.140Z,99653.38
2022-09-28T04:05:02.265Z,99644.38
2022-09-28T04:07:31.121Z,99632.56
2022-09-28T04:09:57.952Z,99631.78
2022-09-28T04:12:24.784Z,99639.59
2022-09-28T04:14:51.470Z,99642.34
2022-09-28T04:17:18.121Z,99639.63
2022-09-28T04:19:44.662Z,99649.03
2022-09-28T04:22:11.312Z,99657.28
2022-09-28T04:24:37.864Z,99643.09
2022-09-28T04:27:23.125Z,99657.28
2022-09-28T04:29:49.645Z,99650.59
2022-09-28T04:32:16.156Z,99647.06
2022-09-28T04:34:44.325Z,99660.84
2022-09-28T04:37:11.231Z,99660.41
2022-09-28T04:39:38.015Z,99662.00
2022-09-28T04:42:04.577Z,99678.44
2022-09-28T04:44:31.214Z,99678.44
2022-09-28T04:47:00.595Z,99688.28
2022-09-28T04:49:29.554Z,99676.84
2022-09-28T04:51:56.095Z,99688.66
2022-09-28T04:54:22.610Z,99683.16
2022-09-28T04:56:49.245Z,99679.19
2022-09-28T04:59:15.804Z,99663.44
2022-09-28T05:01:42.452Z,99665.00
2022-09-28T05:04:08.968Z,99671.72
2022-09-28T05:06:35.486Z,99657.16
2022-09-28T05:09:02.079Z,99676.03
2022-09-28T05:11:28.585Z,99680.72
2022-09-28T05:13:55.263Z,99681.50
2022-09-28T05:16:21.940Z,99682.34
2022-09-28T05:18:48.516Z,99669.69
2022-09-28T05:21:15.941Z,99686.66
2022-09-28T05:23:46.925Z,99682.34
2022-09-28T05:26:14.106Z,99660.31
2022-09-28T05:28:40.672Z,99689.06
2022-09-28T05:31:07.295Z,99668.97
2022-09-28T05:33:34.242Z,99686.34
2022-09-28T05:36:02.150Z,99684.00
2022-09-28T05:38:30.030Z,99690.31
2022-09-28T05:40:57.232Z,99703.72
2022-09-28T05:43:24.033Z,99691.91
2022-09-28T05:45:55.423Z,99685.59
2022-09-28T05:48:22.667Z,99684.81
2022-09-28T05:50:52.580Z,99678.44
2022-09-28T05:53:20.115Z,99706.81
2022-09-28T05:55:47.169Z,99719.47
2022-09-28T05:58:13.732Z,99727.31
2022-09-28T06:00:40.222Z,99712.34
2022-09-28T06:03:10.376Z,99696.56
2022-09-28T06:05:39.265Z,99700.13
2022-09-28T06:08:08.412Z,99717.16
2022-09-28T06:10:35.178Z,99721.06
2022-09-28T06:13:02.137Z,99724.66
2022-09-28T06:15:32.288Z,99719.94
2022-09-28T06:18:04.023Z,99723.88
2022-09-28T06:20:34.110Z,99725.09
2022-09-28T06:23:00.693Z,99696.72
2022-09-28T06:25:30.392Z,99717.25
2022-09-28T06:28:02.327Z,99714.84
2022-09-28T06:30:31.277Z,99696.38
2022-09-28T06:33:00.480Z,99721.22
2022-09-28T06:35:30.295Z,99720.81
2022-09-28T06:37:57.952Z,99700.72
2022-09-28T06:40:25.216Z,99708.63
2022-09-28T06:43:02.659Z,99713.00
2022-09-28T06:45:30.435Z,99721.25
2022-09-28T06:47:58.819Z,99697.25
2022-09-28T06:50:40.600Z,99707.44
2022-09-28T06:53:09.572Z,99711.00
2022-09-28T06:55:43.150Z,99712.94
2022-09-28T06:58:15.270Z,99718.84
2022-09-28T07:00:42.013Z,99715.72
2022-09-28T07:03:13.079Z,99703.13
2022-09-28T07:05:45.984Z,99711.78
2022-09-28T07:08:12.863Z,99703.09
2022-09-28T07:10:49.475Z,99717.72
2022-09-28T07:13:47.515Z,99718.47
2022-09-28T07:16:06.612Z,99723.59
2022-09-28T07:18:33.150Z,99729.13
2022-09-28T07:20:59.816Z,99724.38
2022-09-28T07:23:29.629Z,99722.78
2022-09-28T07:25:58.204Z,99731.81
2022-09-28T07:28:25.433Z,99734.94
2022-09-28T07:30:52.052Z,99714.09
2022-09-28T07:33:18.858Z,99728.59
2022-09-28T07:35:53.209Z,99728.50
2022-09-28T07:38:19.822Z,99725.38
2022-09-28T07:41:05.265Z,99733.56
2022-09-28T07:43:32.975Z,99739.78
2022-09-28T07:45:59.741Z,99737.00
2022-09-28T07:48:26.442Z,99731.38
2022-09-28T07:50:57.425Z,99726.19
2022-09-28T07:53:25.525Z,99733.31
2022-09-28T07:55:53.550Z,99728.88
2022-09-28T07:58:20.767Z,99740.34
2022-09-28T08:00:48.884Z,99733.88
2022-09-28T08:03:21.890Z,99741.75
2022-09-28T08:05:48.531Z,99737.25
2022-09-28T08:08:15.558Z,99724.38
2022-09-28T08:10:46.824Z,99728.38
2022-09-28T08:13:15.237Z,99714.41
2022-09-28T08:15:42.646Z,99725.81
2022-09-28T08:18:09.930Z,99722.56
2022-09-28T08:20:55.349Z,99721.63
2022-09-28T08:23:23.315Z,99718.97
2022-09-28T08:25:52.585Z,99724.56
2022-09-28T08:28:19.303Z,99716.75
2022-09-28T08:30:47.127Z,99725.28
2022-09-28T08:33:15.200Z,99727.97
2022-09-28T08:35:42.111Z,99726.47
2022-09-28T08:38:10.705Z,99730.34
2022-09-28T08:40:57.597Z,99742.22
2022-09-28T08:43:53.098Z,99750.75
2022-09-28T08:46:26.382Z,99738.91
2022-09-28T08:49:23.707Z,99745.91
2022-09-28T08:52:13.791Z,99747.13
2022-09-28T08:54:56.198Z,99762.56
2022-09-28T08:57:27.709Z,99748.84
2022-09-28T08:59:59.837Z,99758.69
2022-09-28T09:02:39.761Z,99756.66
2022-09-28T09:05:14.857Z,99768.03
2022-09-28T09:08:06.809Z,99759.22
2022-09-28T09:10:33.967Z,99759.84
2022-09-28T09:13:45.810Z,99764.44
2022-09-28T09:16:45.872Z,99754.22
2022-09-28T09:19:52.808Z,99750.63
2022-09-28T09:22:40.027Z,99743.22
2022-09-28T09:25:20.613Z,99744.97
2022-09-28T09:28:12.146Z,99743.47
2022-09-28T09:31:05.209Z,99724.97
2022-09-28T09:33:55.443Z,99744.75
2022-09-28T09:36:41.332Z,99731.06
2022-09-28T09:39:17.429Z,99728.69
2022-09-28T09:41:53.173Z,99723.75
2022-09-28T09:44:48.922Z,99718.59
2022-09-28T09:47:32.872Z,99727.44
2022-09-28T09:50:16.505Z,99717.38
2022-09-28T09:52:57.573Z,99716.53
2022-09-28T09:55:30.278Z,99724.41
2022-09-28T09:58:04.971Z,99715.50
2022-09-28T10:00:32.356Z,99702.31
2022-09-28T10:03:00.608Z,99714.47
2022-09-28T10:05:30.818Z,99715.88
2022-09-28T10:08:09.278Z,99721.19
2022-09-28T10:10:40.177Z,99699.94
2022-09-28T10:13:06.763Z,99707.91
2022-09-28T10:15:37.915Z,99704.59
2022-09-28T10:18:10.140Z,99700.09
2022-09-28T10:20:40.037Z,99706.59
2022-09-28T10:23:17.434Z,99693.84
2022-09-28T10:25:46.090Z,99695.75
2022-09-28T10:28:21.411Z,99704.97
2022-09-28T10:30:48.177Z,99699.56
2022-09-28T10:33:32.731Z,99701.75
2022-09-28T10:36:01.785Z,99699.06
2022-09-28T10:38:30.420Z,99709.16
2022-09-28T10:41:09.449Z,99687.16
2022-09-28T10:43:53.835Z,99696.28
2022-09-28T10:46:23.870Z,99698.13
2022-09-28T10:49:04.797Z,99692.94
2022-09-28T10:51:48.086Z,99700.34
2022-09-28T10:54:20.347Z,99700.56
2022-09-28T10:56:48.265Z,99708.78
2022-09-28T10:59:29.880Z,99710.97
2022-09-28T11:02:00.860Z,99703.00
2022-09-28T11:04:29.721Z,99715.44
2022-09-28T11:09:31.293Z,99710.94
2022-09-28T11:12:04.769Z,99717.22
2022-09-28T11:14:41.882Z,99720.31
2022-09-28T11:17:32.602Z,99724.16
2022-09-28T11:20:29.606Z,99723.44
2022-09-28T11:23:04.348Z,99741.56
2022-09-28T11:25:31.345Z,99742.28
2022-09-28T11:28:01.618Z,99755.47
2022-09-28T11:30:52.074Z,99738.72
2022-09-28T11:33:27.700Z,99746.94
2022-09-28T11:36:06.364Z,99740.00
2022-09-28T11:38:54.719Z,99739.38
2022-09-28T11:41:53.721Z,99740.50
2022-09-28T11:44:44.630Z,99731.91
2022-09-28T11:47:29.605Z,99716.19
2022-09-28T11:50:24.099Z,99712.88
2022-09-28T11:53:10.360Z,99717.50
2022-09-28T11:55:43.971Z,99713.56
2022-09-28T11:58:22.431Z,99716.63
2022-09-28T12:00:59.406Z,99717.13
2022-09-28T12:03:36.160Z,99721.38
2022-09-28T12:06:07.874Z,99723.59
2022-09-28T12:08:39.996Z,99738.06
2022-09-28T12:11:18.177Z,99747.78
2022-09-28T12:13:51.615Z,99755.38
2022-09-28T12:16:53.501Z,99760.28
2022-09-28T12:19:32.208Z,99762.63
2022-09-28T12:22:11.372Z,99767.03
2022-09-28T12:24:44.065Z,99759.53
2022-09-28T12:27:10.532Z,99759.78
2022-09-28T12:29:47.528Z,99759.13
2022-09-28T12:32:23.049Z,99758.69
2022-09-28T12:34:49.791Z,99761.19
2022-09-28T12:37:34.972Z,99766.16
2022-09-28T12:40:04.716Z,99764.00
2022-09-28T12:43:03.328Z,99764.38
2022-09-28T12:45:35.543Z,99765.16
2022-09-28T12:48:24.015Z,99767.16
2022-09-28T12:51:28.988Z,99788.53
2022-09-28T12:54:08.220Z,99783.13
2022-09-28T12:57:00.309Z,99784.47
2022-09-28T12:59:39.918Z,99775.41
2022-09-28T13:02:44.943Z,99783.25
2022-09-28T13:05:46.199Z,99783.91
2022-09-28T13:08:30.535Z,99774.16
2022-09-28T13:11:18.162Z,99755.94
2022-09-28T13:14:09.912Z,99770.91
2022-09-28T13:16:42.368Z,99761.44
2022-09-28T13:19:16.913Z,99766.06
2022-09-28T13:22:12.118Z,99761.81
2022-09-28T13:24:44.318Z,99758.50
2022-09-28T13:27:19.442Z,99742.22
2022-09-28T13:29:49.212Z,99759.09
2022-09-28T13:32:17.532Z,99742.28
2022-09-28T13:34:50.186Z,99742.53
2022-09-28T13:37:25.652Z,99756.31
2022-09-28T13:39:56.816Z,99753.22
2022-09-28T13:42:35.512Z,99749.50
2022-09-28T13:45:09.583Z,99756.25
2022-09-28T13:47:51.689Z,99753.31
2022-09-28T13:50:50.082Z,99756.03
2022-09-28T13:53:23.277Z,99759.50
2022-09-28T13:55:54.054Z,99749.84
2022-09-28T13:58:25.785Z,99752.19
2022-09-28T14:01:17.642Z,99736.28
2022-09-28T14:03:53.874Z,99748.38
2022-09-28T14:06:29.601Z,99740.31
2022-09-28T14:08:58.933Z,99756.31
2022-09-28T14:11:34.428Z,99750.00
2022-09-28T14:14:14.262Z,99757.47
2022-09-28T14:16:44.415Z,99733.91
2022-09-28T14:19:31.405Z,99755.47
2022-09-28T14:22:08.217Z,99760.50
2022-09-28T14:24:59.005Z,99765.00
2022-09-28T14:27:41.811Z,99756.91
2022-09-28T14:30:20.878Z,99741.69
2022-09-28T14:32:59.066Z,99753.97
2022-09-28T14:35:31.456Z,99762.13
2022-09-28T14:38:25.290Z,99756.22
2022-09-28T14:41:19.672Z,99756.50
2022-09-28T14:43:46.156Z,99753.44
2022-09-28T14:46:15.686Z,99761.81
2022-09-28T14:48:55.188Z,99759.53
2022-09-28T14:51:24.684Z,99767.78
2022-09-28T14:53:56.546Z,99757.66
2022-09-28T14:56:27.009Z,99767.34
2022-09-28T14:58:58.039Z,99759.06
2022-09-28T15:01:26.129Z,99749.09
2022-09-28T15:03:56.608Z,99755.28
2022-09-28T15:06:24.772Z,99751.41
2022-09-28T15:08:51.492Z,99753.06
2022-09-28T15:11:24.454Z,99752.22
2022-09-28T15:14:04.500Z,99756.03
2022-09-28T15:16:32.185Z,99774.59
2022-09-28T15:19:30.037Z,99773.50
2022-09-28T15:21:56.666Z,99771.44
2022-09-28T15:24:32.938Z,99766.56
2022-09-28T15:27:13.668Z,99764.03
2022-09-28T15:29:41.046Z,99751.69
2022-09-28T15:32:23.916Z,99735.50
2022-09-28T15:34:54.732Z,99757.56
2022-09-28T15:37:29.739Z,99739.66
2022-09-28T15:39:58.145Z,99753.41
2022-09-28T15:42:25.689Z,99745.34
2022-09-28T15:45:25.481Z,99761.47
2022-09-28T15:48:13.943Z,99752.66
2022-09-28T15:50:45.753Z,99763.75
2022-09-28T15:53:18.066Z,99753.97
2022-09-28T15:55:45.090Z,99746.28
2022-09-28T15:58:19.440Z,99759.06
2022-09-28T16:00:48.098Z,99753.13
2022-09-28T16:03:17.321Z,99748.31
2022-09-28T16:06:08.960Z,99770.16
2022-09-28T16:08:43.851Z,99773.91
2022-09-28T16:11:21.781Z,99751.31
2022-09-28T16:14:05.945Z,99756.56
2022-09-28T16:16:46.469Z,99777.09
2022-09-28T16:19:23.650Z,99777.19
2022-09-28T16:21:55.853Z,99765.34
2022-09-28T16:24:30.489Z,99769.63
2022-09-28T16:26:58.820Z,99771.09
2022-09-28T16:29:41.550Z,99773.88
2022-09-28T16:32:26.150Z,99784.19
2022-09-28T16:35:10.959Z,99785.81
2022-09-28T16:37:42.136Z,99775.56
2022-09-28T16:40:11.541Z,99776.97
2022-09-28T16:42:40.420Z,99782.66
2022-09-28T16:45:08.226Z,99791.47
2022-09-28T16:47:34.902Z,99787.97
2022-09-28T16:50:06.361Z,99789.31
2022-09-28T16:52:51.520Z,99788.31
2022-09-28T16:58:04.848Z,99787.31
2022-09-28T17:00:32.480Z,99791.66
2022-09-28T17:02:59.311Z,99782.81
2022-09-28T17:05:26.026Z,99800.00
2022-09-28T17:08:03.508Z,99802.91
2022-09-28T17:10:50.197Z,99811.41
2022-09-28T17:13:31.350Z,99816.38
2022-09-28T17:15:58.661Z,99806.69
2022-09-28T17:18:25.736Z,99825.00
2022-09-28T17:20:55.621Z,99817.16
2022-09-28T17:23:22.251Z,99818.78
2022-09-28T17:25:49.112Z,99817.19
2022-09-28T17:28:22.346Z,99822.06
2022-09-28T17:30:49.065Z,99832.50
2022-09-28T17:33:15.793Z,99824.59
2022-09-28T17:35:44.069Z,99842.72
2022-09-28T17:38:15.292Z,99841.88
2022-09-28T17:40:43.535Z,99831.34
2022-09-28T17:43:10.155Z,99842.06
2022-09-28T17:45:41.707Z,99837.03
2022-09-28T17:48:15.880Z,99849.31
2022-09-28T17:50:46.431Z,99860.47
2022-09-28T17:53:13.899Z,99859.63
2022-09-28T17:55:40.932Z,99859.94
2022-09-28T17:58:19.549Z,99843.06
2022-09-28T18:00:48.047Z,99864.81
2022-09-28T18:03:17.675Z,99870.72
2022-09-28T18:05:45.078Z,99862.88
2022-09-28T18:08:15.074Z,99871.94
2022-09-28T18:10:41.619Z,99880.25
2022-09-28T18:13:08.513Z,99877.56
2022-09-28T18:15:35.608Z,99884.22
2022-09-28T18:18:02.210Z,99881.88
2022-09-28T18:20:29.671Z,99884.63
2022-09-28T18:22:57.316Z,99890.56
2022-09-28T18:25:23.886Z,99891.69
2022-09-28T18:27:50.400Z,99888.97
2022-09-28T18:30:17.067Z,99888.97
2022-09-28T18:32:43.640Z,99890.22
2022-09-28T18:35:11.182Z,99879.59
2022-09-28T18:37:39.986Z,99893.44
2022-09-28T18:40:09.186Z,99896.97
2022-09-28T18:42:36.240Z,99904.88
2022-09-28T18:45:04.010Z,99910.00
2022-09-28T18:47:30.546Z,99914.72
2022-09-28T18:49:57.818Z,99899.38
2022-09-28T18:52:25.644Z,99915.53
2022-09-28T18:54:52.202Z,99912.78
2022-09-28T18:57:19.204Z,99901.31
2022-09-28T18:59:46.277Z,99889.09
2022-09-28T19:02:13.327Z,99908.81
2022-09-28T19:04:40.867Z,99915.13
2022-09-28T19:07:08.401Z,99923.38
2022-09-28T19:09:35.171Z,99907.63
2022-09-28T19:12:02.088Z,99932.47
2022-09-28T19:14:28.665Z,99932.06
2022-09-28T19:16:55.242Z,99935.59
2022-09-28T19:19:21.781Z,99937.56
2022-09-28T19:21:48.460Z,99934.03
2022-09-28T19:24:17.759Z,99917.44
2022-09-28T19:26:45.182Z,99941.91
2022-09-28T19:29:11.996Z,99943.06
2022-09-28T19:31:39.189Z,99937.94
2022-09-28T19:34:06.693Z,99934.00
2022-09-28T19:36:33.988Z,99945.44
2022-09-28T19:39:03.964Z,99947.44
2022-09-28T19:41:49.265Z,99937.16
2022-09-28T19:44:25.651Z,99930.03
2022-09-28T19:47:00.283Z,99930.75
2022-09-28T19:49:27.854Z,99941.81
2022-09-28T19:54:45.081Z,99948.53
2022-09-28T19:57:14.466Z,99948.91
2022-09-28T19:59:41.293Z,99954.41
2022-09-28T20:02:08.571Z,99946.41
2022-09-28T20:04:35.346Z,99945.25
2022-09-28T20:07:02.429Z,99951.94
2022-09-28T20:09:29.408Z,99955.09
2022-09-28T20:11:56.022Z,99945.63
2022-09-28T20:14:24.589Z,99951.94
2022-09-28T20:16:54.801Z,99951.91
2022-09-28T20:19:23.061Z,99955.84
2022-09-28T20:21:50.003Z,99954.63
2022-09-28T20:24:17.285Z,99960.53
2022-09-28T20:26:45.741Z,99966.06
2022-09-28T20:29:12.866Z,99966.88
2022-09-28T20:31:39.539Z,99965.28
2022-09-28T20:34:06.568Z,99959.44
2022-09-28T20:36:33.835Z,99955.50
2022-09-28T20:39:04.655Z,99942.88
2022-09-28T20:41:36.865Z,99957.84
2022-09-28T20:44:06.186Z,99959.06
2022-09-28T20:46:34.907Z,99962.13
2022-09-28T20:49:01.748Z,99952.22
2022-09-28T20:51:28.433Z,99945.44
2022-09-28T20:53:56.591Z,99939.81
2022-09-28T20:56:26.959Z,99940.31
2022-09-28T20:58:54.431Z,99942.56
2022-09-28T21:01:25.250Z,99970.63
2022-09-28T21:03:54.331Z,99970.63
2022-09-28T21:06:23.156Z,99964.31
2022-09-28T21:08:50.304Z,99964.97
2022-09-28T21:11:19.162Z,99963.00
2022-09-28T21:13:46.322Z,99965.03
2022-09-28T21:16:18.032Z,99971.28
2022-09-28T21:18:44.760Z,99957.44
2022-09-28T21:21:16.893Z,99956.28
2022-09-28T21:23:46.513Z,99972.78
2022-09-28T21:26:16.041Z,99965.69
2022-09-28T21:28:44.713Z,99971.25
2022-09-28T21:31:12.191Z,99967.28
2022-09-28T21:33:38.891Z,99964.91
2022-09-28T21:36:07.268Z,99967.22
2022-09-28T21:38:34.750Z,99949.34
2022-09-28T21:41:02.177Z,99963.28
2022-09-28T21:43:31.638Z,99972.84
2022-09-28T21:45:58.707Z,99975.56
2022-09-28T21:48:27.253Z,99973.13
2022-09-28T21:50:56.002Z,99972.00
2022-09-28T21:53:23.927Z,99971.91
2022-09-28T21:55:54.883Z,99975.03
2022-09-28T21:58:23.299Z,99977.41
2022-09-28T22:00:59.577Z,99969.50
2022-09-28T22:03:26.067Z,99973.00
2022-09-28T22:05:52.690Z,99982.78
2022-09-28T22:08:20.611Z,99984.31
2022-09-28T22:11:07.834Z,99985.06
2022-09-28T22:13:36.553Z,99970.97
2022-09-28T22:16:03.312Z,99979.50
2022-09-28T22:18:31.803Z,99987.47
2022-09-28T22:21:06.603Z,99983.69
2022-09-28T22:23:34.049Z,99965.53
2022-09-28T22:26:03.379Z,99978.50
2022-09-28T22:28:30.052Z,99974.03
2022-09-28T22:30:57.824Z,99977.50
2022-09-28T22:33:24.760Z,99951.44
2022-09-28T22:35:51.575Z,99966.97
2022-09-28T22:38:19.347Z,99982.66
2022-09-28T22:40:49.706Z,99959.16
2022-09-28T22:43:18.740Z,99983.56
2022-09-28T22:45:45.758Z,99968.81
2022-09-28T22:48:13.145Z,99989.22
2022-09-28T22:50:47.078Z,99989.69
2022-09-28T22:53:14.162Z,99996.59
2022-09-28T22:55:41.487Z,99991.50
2022-09-28T22:58:08.062Z,99998.53
2022-09-28T23:00:34.648Z,99983.63
2022-09-28T23:03:01.270Z,99996.09
2022-09-28T23:05:27.865Z,99981.44
2022-09-28T23:07:54.397Z,99986.69
2022-09-28T23:10:22.024Z,99987.47
2022-09-28T23:12:48.584Z,99989.72
2022-09-28T23:15:15.438Z,99983.41
2022-09-28T23:17:41.945Z,99990.97
2022-09-28T23:20:08.902Z,99968.69
2022-09-28T23:22:35.438Z,99981.66
2022-09-28T23:25:01.944Z,99982.81
2022-09-28T23:27:28.479Z,99965.75
2022-09-28T23:29:55.008Z,99963.72
2022-09-28T23:32:21.462Z,99995.75
2022-09-28T23:34:48.037Z,99992.94
2022-09-28T23:37:14.580Z,99992.06
2022-09-28T23:39:42.151Z,99996.81
2022-09-28T23:42:08.644Z,99991.56
2022-09-28T23:44:35.250Z,99995.50
2022-09-28T23:47:01.794Z,99989.06
2022-09-28T23:49:29.648Z,99996.25
2022-09-28T23:51:56.220Z,99990.34
2022-09-28T23:54:22.788Z,99986.28
2022-09-28T23:56:49.334Z,99970.41
2022-09-28T23:59:15.915Z,99976.34
